createdAt,value
2022-09-24T00:01:40.426Z,6.10
2022-09-24T00:04:11.698Z,6.22
2022-09-24T00:06:44.946Z,6.40
2022-09-24T00:09:19.432Z,6.18
2022-09-24T00:11:47.108Z,5.63
2022-09-24T00:14:14.725Z,5.78
2022-09-24T00:16:44.021Z,5.15
2022-09-24T00:19:13.803Z,5.57
2022-09-24T00:21:41.847Z,5.15
2022-09-24T00:24:36.469Z,5.68
2022-09-24T00:27:05.815Z,5.30
2022-09-24T00:29:34.356Z,5.53
2022-09-24T00:32:02.962Z,5.97
2022-09-24T00:34:30.420Z,5.60
2022-09-24T00:36:57.861Z,5.63
2022-09-24T00:39:25.411Z,6.20
2022-09-24T00:41:52.851Z,5.55
2022-09-24T00:44:41.216Z,5.80
2022-09-24T00:47:27.522Z,5.28
2022-09-24T00:50:13.171Z,5.32
2022-09-24T00:52:45.703Z,5.28
2022-09-24T00:55:14.343Z,5.30
2022-09-24T00:57:42.254Z,6.00
2022-09-24T01:00:10.490Z,6.05
2022-09-24T01:02:41.311Z,5.80
2022-09-24T01:05:10.253Z,6.05
2022-09-24T01:07:37.695Z,5.50
2022-09-24T01:10:05.875Z,5.28
2022-09-24T01:12:53.480Z,5.28
2022-09-24T01:15:33.213Z,5.30
2022-09-24T01:18:07.271Z,5.95
2022-09-24T01:20:57.178Z,4.90
2022-09-24T01:24:02.261Z,5.15
2022-09-24T01:26:51.247Z,5.35
2022-09-24T01:29:42.231Z,4.82
2022-09-24T01:32:25.889Z,4.72
2022-09-24T01:35:21.566Z,5.13
2022-09-24T01:38:00.115Z,4.65
2022-09-24T01:40:29.742Z,4.82
2022-09-24T01:42:59.901Z,5.05
2022-09-24T01:45:31.168Z,5.35
2022-09-24T01:48:02.276Z,4.97
2022-09-24T01:50:34.890Z,4.65
2022-09-24T01:53:07.466Z,5.25
2022-09-24T01:55:39.013Z,4.82
2022-09-24T01:58:10.581Z,5.00
2022-09-24T02:00:44.097Z,4.87
2022-09-24T02:03:25.539Z,4.95
2022-09-24T02:05:59.111Z,4.93
2022-09-24T02:08:33.525Z,4.65
2022-09-24T02:11:08.184Z,5.18
2022-09-24T02:13:40.269Z,4.70
2022-09-24T02:16:14.704Z,5.93
2022-09-24T02:18:47.928Z,5.00
2022-09-24T02:21:17.948Z,5.35
2022-09-24T02:24:07.128Z,4.65
2022-09-24T02:26:34.679Z,4.47
2022-09-24T02:29:02.303Z,5.38
2022-09-24T02:31:35.080Z,4.63
2022-09-24T02:34:22.052Z,4.47
2022-09-24T02:36:52.001Z,4.40
2022-09-24T02:39:20.333Z,4.85
2022-09-24T02:41:49.326Z,4.63
2022-09-24T02:44:17.602Z,4.32
2022-09-24T02:46:45.972Z,4.03
2022-09-24T02:49:14.587Z,4.60
2022-09-24T02:51:42.685Z,4.32
2022-09-24T02:54:10.809Z,4.40
2022-09-24T02:56:38.324Z,4.18
2022-09-24T02:59:06.274Z,4.80
2022-09-24T03:01:34.835Z,3.97
2022-09-24T03:04:03.630Z,3.90
2022-09-24T03:06:31.150Z,4.18
2022-09-24T03:08:59.171Z,3.92
2022-09-24T03:11:26.603Z,4.07
2022-09-24T03:13:53.982Z,4.60
2022-09-24T03:16:21.481Z,4.07
2022-09-24T03:18:48.975Z,3.83
2022-09-24T03:21:19.038Z,3.53
2022-09-24T03:23:46.909Z,3.67
2022-09-24T03:26:14.528Z,3.30
2022-09-24T03:28:42.068Z,3.60
2022-09-24T03:31:09.865Z,3.03
2022-09-24T03:33:43.369Z,3.47
2022-09-24T03:36:19.777Z,3.80
2022-09-24T03:38:48.593Z,3.40
2022-09-24T03:41:17.804Z,3.70
2022-09-24T03:43:45.272Z,3.60
2022-09-24T03:46:13.907Z,3.63
2022-09-24T03:48:41.551Z,4.03
2022-09-24T03:51:11.919Z,3.20
2022-09-24T03:53:40.029Z,2.88
2022-09-24T03:56:08.614Z,3.55
2022-09-24T03:58:38.735Z,3.50
2022-09-24T04:01:07.303Z,3.08
2022-09-24T04:03:35.954Z,3.28
2022-09-24T04:06:04.506Z,3.17
2022-09-24T04:08:32.386Z,3.15
2022-09-24T04:11:00.292Z,3.33
2022-09-24T04:13:27.803Z,3.70
2022-09-24T04:15:55.293Z,3.47
2022-09-24T04:18:22.783Z,3.17
2022-09-24T04:20:50.161Z,3.25
2022-09-24T04:23:17.609Z,3.30
2022-09-24T04:25:45.021Z,3.30
2022-09-24T04:28:12.462Z,3.00
2022-09-24T04:30:40.176Z,3.28
2022-09-24T04:33:08.188Z,2.80
2022-09-24T04:35:36.620Z,2.80
2022-09-24T04:38:05.214Z,2.80
2022-09-24T04:40:33.320Z,3.03
2022-09-24T04:43:01.103Z,3.08
2022-09-24T04:45:28.480Z,3.10
2022-09-24T04:47:58.679Z,2.97
2022-09-24T04:50:28.807Z,2.85
2022-09-24T04:52:56.456Z,3.03
2022-09-24T04:55:25.512Z,3.38
2022-09-24T04:57:55.083Z,3.75
2022-09-24T05:00:22.731Z,3.88
2022-09-24T05:02:58.190Z,3.47
2022-09-24T05:05:26.232Z,3.42
2022-09-24T05:07:56.678Z,3.17
2022-09-24T05:10:26.072Z,3.40
2022-09-24T05:12:53.845Z,3.15
2022-09-24T05:15:21.773Z,3.20
2022-09-24T05:17:49.217Z,3.67
2022-09-24T05:20:17.004Z,2.90
2022-09-24T05:22:46.315Z,3.05
2022-09-24T05:25:15.148Z,2.90
2022-09-24T05:27:46.648Z,3.13
2022-09-24T05:30:14.608Z,3.60
2022-09-24T05:32:42.396Z,6.03
2022-09-24T05:35:10.244Z,4.03
2022-09-24T05:37:39.022Z,3.70
2022-09-24T05:40:26.091Z,4.00
2022-09-24T05:43:02.842Z,4.28
2022-09-24T05:45:31.246Z,3.53
2022-09-24T05:48:00.110Z,19.85
2022-09-24T05:50:27.871Z,4.35
2022-09-24T05:52:55.441Z,3.97
2022-09-24T05:55:22.816Z,3.78
2022-09-24T05:57:50.197Z,4.80
2022-09-24T06:00:17.637Z,3.78
2022-09-24T06:02:45.039Z,3.85
2022-09-24T06:05:12.930Z,4.30
2022-09-24T06:07:40.363Z,3.85
2022-09-24T06:10:08.228Z,5.00
2022-09-24T06:12:35.746Z,5.22
2022-09-24T06:15:03.655Z,4.13
2022-09-24T06:17:32.350Z,4.00
2022-09-24T06:19:59.807Z,4.28
2022-09-24T06:22:29.086Z,5.53
2022-09-24T06:24:56.630Z,4.18
2022-09-24T06:27:24.209Z,2.85
2022-09-24T06:29:51.676Z,3.20
2022-09-24T06:32:24.018Z,4.18
2022-09-24T06:34:54.422Z,5.10
2022-09-24T06:37:25.727Z,3.65
2022-09-24T06:39:53.937Z,3.50
2022-09-24T06:42:21.289Z,3.63
2022-09-24T06:44:48.678Z,5.30
2022-09-24T06:47:16.070Z,4.05
2022-09-24T06:49:43.518Z,4.28
2022-09-24T06:52:11.439Z,3.80
2022-09-24T06:54:38.910Z,3.60
2022-09-24T06:57:07.011Z,4.43
2022-09-24T06:59:34.380Z,5.10
2022-09-24T07:02:02.474Z,5.30
2022-09-24T07:04:29.897Z,4.90
2022-09-24T07:07:15.781Z,6.03
2022-09-24T07:09:43.270Z,4.15
2022-09-24T07:12:10.630Z,4.78
2022-09-24T07:14:37.990Z,6.15
2022-09-24T07:17:05.370Z,3.85
2022-09-24T07:19:32.743Z,7.75
2022-09-24T07:22:00.160Z,5.15
2022-09-24T07:24:27.548Z,5.88
2022-09-24T07:26:54.930Z,4.60
2022-09-24T07:29:22.659Z,4.95
2022-09-24T07:31:50.163Z,4.03
2022-09-24T07:34:17.951Z,4.15
2022-09-24T07:36:45.338Z,4.13
2022-09-24T07:39:12.702Z,3.72
2022-09-24T07:41:42.267Z,4.47
2022-09-24T07:44:10.062Z,4.78
2022-09-24T07:46:37.670Z,4.38
2022-09-24T07:49:05.275Z,5.38
2022-09-24T07:51:32.642Z,3.90
2022-09-24T07:54:00.111Z,4.90
2022-09-24T07:56:27.494Z,13.23
2022-09-24T07:58:55.173Z,13.48
2022-09-24T08:01:22.624Z,11.68
2022-09-24T08:03:52.175Z,7.75
2022-09-24T08:06:22.574Z,4.05
2022-09-24T08:08:52.532Z,4.00
2022-09-24T08:11:21.397Z,4.97
2022-09-24T08:13:49.066Z,3.92
2022-09-24T08:16:16.923Z,3.75
2022-09-24T08:18:44.578Z,4.53
2022-09-24T08:21:13.207Z,8.48
2022-09-24T08:23:41.719Z,5.05
2022-09-24T08:26:11.241Z,3.90
2022-09-24T08:28:40.526Z,3.90
2022-09-24T08:31:11.297Z,3.35
2022-09-24T08:33:41.202Z,2.63
2022-09-24T08:36:11.345Z,2.70
2022-09-24T08:38:41.298Z,3.22
2022-09-24T08:41:12.403Z,2.63
2022-09-24T08:43:57.859Z,2.30
2022-09-24T08:46:51.380Z,3.88
2022-09-24T08:49:25.894Z,11.45
2022-09-24T08:52:35.810Z,8.02
2022-09-24T08:55:13.299Z,3.58
2022-09-24T08:58:06.177Z,2.90
2022-09-24T09:00:47.112Z,5.57
2022-09-24T09:03:39.390Z,5.07
2022-09-24T09:06:37.637Z,3.80
2022-09-24T09:09:17.918Z,3.22
2022-09-24T09:11:50.168Z,3.78
2022-09-24T09:14:37.014Z,5.78
2022-09-24T09:17:26.327Z,2.92
2022-09-24T09:19:58.827Z,3.15
2022-09-24T09:22:31.006Z,2.60
2022-09-24T09:25:19.903Z,3.10
2022-09-24T09:27:56.255Z,3.20
2022-09-24T09:30:23.814Z,3.30
2022-09-24T09:33:12.602Z,3.53
2022-09-24T09:36:00.187Z,3.60
2022-09-24T09:38:34.079Z,3.13
2022-09-24T09:41:34.957Z,3.35
2022-09-24T09:44:17.390Z,3.70
2022-09-24T09:47:09.740Z,3.10
2022-09-24T09:49:39.075Z,3.08
2022-09-24T09:52:15.770Z,3.70
2022-09-24T09:54:45.128Z,2.60
2022-09-24T09:57:21.701Z,3.00
2022-09-24T09:59:51.137Z,2.90
2022-09-24T10:02:31.242Z,3.10
2022-09-24T10:05:02.134Z,2.75
2022-09-24T10:07:32.143Z,2.92
2022-09-24T10:10:03.055Z,3.50
2022-09-24T10:12:30.780Z,3.10
2022-09-24T10:15:04.146Z,2.90
2022-09-24T10:17:36.520Z,2.88
2022-09-24T10:22:50.643Z,2.95
2022-09-24T10:25:24.456Z,3.30
2022-09-24T10:27:53.500Z,2.40
2022-09-24T10:30:36.330Z,3.10
2022-09-24T10:33:06.009Z,3.22
2022-09-24T10:35:36.179Z,2.83
2022-09-24T10:38:19.793Z,3.15
2022-09-24T10:40:48.072Z,3.20
2022-09-24T10:43:22.330Z,3.00
2022-09-24T10:45:49.609Z,3.00
2022-09-24T10:48:26.544Z,2.70
2022-09-24T10:51:08.556Z,2.88
2022-09-24T10:53:43.196Z,3.28
2022-09-24T10:56:27.063Z,2.80
2022-09-24T10:59:16.742Z,10.40
2022-09-24T11:02:08.959Z,12.00
2022-09-24T11:05:12.283Z,8.85
2022-09-24T11:07:56.537Z,5.35
2022-09-24T11:10:44.391Z,6.85
2022-09-24T11:13:23.839Z,7.57
2022-09-24T11:16:20.307Z,6.53
2022-09-24T11:19:36.721Z,3.95
2022-09-24T11:22:15.082Z,2.72
2022-09-24T11:25:11.213Z,3.20
2022-09-24T11:27:38.530Z,3.03
2022-09-24T11:30:19.332Z,2.40
2022-09-24T11:32:57.282Z,3.13
2022-09-24T11:35:50.831Z,4.68
2022-09-24T11:38:45.404Z,4.45
2022-09-24T11:41:31.490Z,3.15
2022-09-24T11:44:36.999Z,4.22
2022-09-24T11:47:16.655Z,7.43
2022-09-24T11:50:05.038Z,22.05
2022-09-24T11:52:45.343Z,7.50
2022-09-24T11:55:25.941Z,7.22
2022-09-24T11:58:18.428Z,6.18
2022-09-24T12:00:56.096Z,4.97
2022-09-24T12:03:54.314Z,2.88
2022-09-24T12:06:37.112Z,3.00
2022-09-24T12:09:16.365Z,2.63
2022-09-24T12:11:58.502Z,3.10
2022-09-24T12:14:30.453Z,2.78
2022-09-24T12:17:07.277Z,2.47
2022-09-24T12:19:47.364Z,3.05
2022-09-24T12:22:17.189Z,2.60
2022-09-24T12:24:53.919Z,2.60
2022-09-24T12:27:40.006Z,3.20
2022-09-24T12:30:50.790Z,2.58
2022-09-24T12:33:44.189Z,2.67
2022-09-24T12:36:23.831Z,2.45
2022-09-24T12:39:03.096Z,2.33
2022-09-24T12:41:32.451Z,2.65
2022-09-24T12:44:06.032Z,2.50
2022-09-24T12:46:53.191Z,3.03
2022-09-24T12:49:26.799Z,2.20
2022-09-24T12:51:56.341Z,2.10
2022-09-24T12:54:33.784Z,2.50
2022-09-24T12:57:05.229Z,2.80
2022-09-24T12:59:32.602Z,2.50
2022-09-24T13:02:23.842Z,2.47
2022-09-24T13:05:15.061Z,3.00
2022-09-24T13:07:42.610Z,3.75
2022-09-24T13:10:35.621Z,3.00
2022-09-24T13:13:15.567Z,3.05
2022-09-24T13:15:43.551Z,2.80
2022-09-24T13:18:11.180Z,3.17
2022-09-24T13:20:43.839Z,3.13
2022-09-24T13:23:19.623Z,2.58
2022-09-24T13:25:58.898Z,2.60
2022-09-24T13:28:37.806Z,3.30
2022-09-24T13:31:22.611Z,4.55
2022-09-24T13:33:55.080Z,3.58
2022-09-24T13:39:29.699Z,3.00
2022-09-24T13:42:02.966Z,3.22
2022-09-24T13:44:57.815Z,3.47
2022-09-24T13:47:47.876Z,3.70
2022-09-24T13:50:20.763Z,3.85
2022-09-24T13:52:54.323Z,4.28
2022-09-24T13:55:24.032Z,3.65
2022-09-24T13:57:51.564Z,4.10
2022-09-24T14:00:22.053Z,4.18
2022-09-24T14:02:58.329Z,3.55
2022-09-24T14:05:27.065Z,4.70
2022-09-24T14:08:11.022Z,5.72
2022-09-24T14:10:40.172Z,7.15
2022-09-24T14:13:26.797Z,8.23
2022-09-24T14:16:07.468Z,5.43
2022-09-24T14:18:37.054Z,10.40
2022-09-24T14:21:19.452Z,9.15
2022-09-24T14:24:00.132Z,4.38
2022-09-24T14:27:02.714Z,4.80
2022-09-24T14:29:50.202Z,4.43
2022-09-24T14:32:32.152Z,4.47
2022-09-24T14:35:31.435Z,3.42
2022-09-24T14:38:13.415Z,3.78
2022-09-24T14:41:18.413Z,4.43
2022-09-24T14:43:56.548Z,4.22
2022-09-24T14:46:49.664Z,4.60
2022-09-24T14:49:30.142Z,5.05
2022-09-24T14:52:03.235Z,4.50
2022-09-24T14:54:37.673Z,8.88
2022-09-24T14:57:20.112Z,11.23
2022-09-24T14:59:47.641Z,11.23
2022-09-24T15:02:21.200Z,8.85
2022-09-24T15:04:55.435Z,8.00
2022-09-24T15:07:25.742Z,8.32
2022-09-24T15:09:56.577Z,6.93
2022-09-24T15:12:31.872Z,9.95
2022-09-24T15:15:24.971Z,7.80
2022-09-24T15:17:52.595Z,9.13
2022-09-24T15:20:19.960Z,7.78
2022-09-24T15:22:48.174Z,6.68
2022-09-24T15:25:16.840Z,6.90
2022-09-24T15:27:45.468Z,7.20
2022-09-24T15:30:20.958Z,7.00
2022-09-24T15:32:51.683Z,6.03
2022-09-24T15:35:19.101Z,6.70
2022-09-24T15:37:46.804Z,6.22
2022-09-24T15:40:23.391Z,6.90
2022-09-24T15:42:51.564Z,8.32
2022-09-24T15:45:24.810Z,7.15
2022-09-24T15:47:53.291Z,7.63
2022-09-24T15:50:22.581Z,8.75
2022-09-24T15:52:56.723Z,7.47
2022-09-24T15:55:24.383Z,7.80
2022-09-24T15:57:51.975Z,7.55
2022-09-24T16:00:21.797Z,9.15
2022-09-24T16:02:57.447Z,7.78
2022-09-24T16:05:26.001Z,7.88
2022-09-24T16:07:53.547Z,8.27
2022-09-24T16:10:20.941Z,9.23
2022-09-24T16:12:48.366Z,8.63
2022-09-24T16:15:16.693Z,10.20
2022-09-24T16:17:44.207Z,9.60
2022-09-24T16:20:11.614Z,11.63
2022-09-24T16:22:39.076Z,10.82
2022-09-24T16:25:06.982Z,11.07
2022-09-24T16:27:35.391Z,9.75
2022-09-24T16:30:04.203Z,11.60
2022-09-24T16:32:31.881Z,11.60
2022-09-24T16:34:59.410Z,11.35
2022-09-24T16:37:26.923Z,11.60
2022-09-24T16:39:55.140Z,11.48
2022-09-24T16:42:26.226Z,11.50
2022-09-24T16:44:53.669Z,12.95
2022-09-24T16:47:21.342Z,11.23
2022-09-24T16:49:48.746Z,10.93
2022-09-24T16:52:16.112Z,9.73
2022-09-24T16:54:43.595Z,9.77
2022-09-24T16:57:11.039Z,10.65
2022-09-24T16:59:38.427Z,10.43
2022-09-24T17:02:05.936Z,9.25
2022-09-24T17:04:34.361Z,8.95
2022-09-24T17:07:01.891Z,17.15
2022-09-24T17:09:47.959Z,8.93
2022-09-24T17:12:15.334Z,9.65
2022-09-24T17:14:42.733Z,9.05
2022-09-24T17:17:11.506Z,9.02
2022-09-24T17:19:38.914Z,9.88
2022-09-24T17:22:06.335Z,10.47
2022-09-24T17:24:39.722Z,9.65
2022-09-24T17:27:08.231Z,9.43
2022-09-24T17:29:36.129Z,9.73
2022-09-24T17:32:03.626Z,9.50
2022-09-24T17:34:31.101Z,9.85
2022-09-24T17:36:59.759Z,10.00
2022-09-24T17:39:27.937Z,9.60
2022-09-24T17:41:55.310Z,9.82
2022-09-24T17:44:22.748Z,10.23
2022-09-24T17:46:50.205Z,10.38
2022-09-24T17:49:17.763Z,11.50
2022-09-24T17:51:46.583Z,13.95
2022-09-24T17:54:15.977Z,13.70
2022-09-24T17:56:43.411Z,13.65
2022-09-24T17:59:13.125Z,12.07
2022-09-24T18:01:43.049Z,12.30
2022-09-24T18:04:16.380Z,12.63
2022-09-24T18:06:46.135Z,12.05
2022-09-24T18:09:15.154Z,11.38
2022-09-24T18:11:52.266Z,13.88
2022-09-24T18:14:22.209Z,13.98
2022-09-24T18:16:50.291Z,12.18
2022-09-24T18:19:18.459Z,12.23
2022-09-24T18:21:49.218Z,11.60
2022-09-24T18:24:16.986Z,10.77
2022-09-24T18:26:47.407Z,10.60
2022-09-24T18:29:17.704Z,10.57
2022-09-24T18:31:45.491Z,10.65
2022-09-24T18:34:14.847Z,10.45
2022-09-24T18:36:43.711Z,11.73
2022-09-24T18:39:13.792Z,11.27
2022-09-24T18:41:42.601Z,9.93
2022-09-24T18:44:11.130Z,10.73
2022-09-24T18:46:39.470Z,10.25
2022-09-24T18:49:09.206Z,10.20
2022-09-24T18:51:37.774Z,10.00
2022-09-24T18:54:13.531Z,11.85
2022-09-24T18:56:41.406Z,10.25
2022-09-24T18:59:15.987Z,11.52
2022-09-24T19:01:44.591Z,11.95
2022-09-24T19:04:13.948Z,11.45
2022-09-24T19:06:43.554Z,11.35
2022-09-24T19:09:13.479Z,10.43
2022-09-24T19:11:42.156Z,9.90
2022-09-24T19:14:12.134Z,10.60
2022-09-24T19:16:40.201Z,9.45
2022-09-24T19:19:07.789Z,8.95
2022-09-24T19:21:35.175Z,10.10
2022-09-24T19:24:02.571Z,9.73
2022-09-24T19:26:31.704Z,8.88
2022-09-24T19:29:00.110Z,9.40
2022-09-24T19:31:36.662Z,10.00
2022-09-24T19:34:06.282Z,9.98
2022-09-24T19:36:42.963Z,9.52
2022-09-24T19:39:13.321Z,10.15
2022-09-24T19:41:40.700Z,9.68
2022-09-24T19:44:09.408Z,9.63
2022-09-24T19:46:38.469Z,10.05
2022-09-24T19:49:06.339Z,10.35
2022-09-24T19:51:35.233Z,10.05
2022-09-24T19:54:07.858Z,9.20
2022-09-24T19:56:36.643Z,10.10
2022-09-24T19:59:05.394Z,9.68
2022-09-24T20:01:34.028Z,9.45
2022-09-24T20:04:05.195Z,9.57
2022-09-24T20:06:34.058Z,8.30
2022-09-24T20:09:01.945Z,8.35
2022-09-24T20:11:32.314Z,10.23
2022-09-24T20:14:00.352Z,9.70
2022-09-24T20:16:32.830Z,10.98
2022-09-24T20:19:02.552Z,10.32
2022-09-24T20:21:34.599Z,9.77
2022-09-24T20:24:03.777Z,9.90
2022-09-24T20:26:50.690Z,9.68
2022-09-24T20:29:19.797Z,9.60
2022-09-24T20:31:52.448Z,9.68
2022-09-24T20:34:22.524Z,10.05
2022-09-24T20:36:50.822Z,9.57
2022-09-24T20:39:19.283Z,9.48
2022-09-24T20:41:47.682Z,10.77
2022-09-24T20:44:15.058Z,11.05
2022-09-24T20:46:42.507Z,9.98
2022-09-24T20:49:18.265Z,10.90
2022-09-24T20:51:45.790Z,11.13
2022-09-24T20:54:13.172Z,12.43
2022-09-24T20:56:40.766Z,12.45
2022-09-24T20:59:09.289Z,11.63
2022-09-24T21:01:37.265Z,11.57
2022-09-24T21:04:05.573Z,11.15
2022-09-24T21:06:33.090Z,11.20
2022-09-24T21:09:00.495Z,11.52
2022-09-24T21:11:27.951Z,11.50
2022-09-24T21:14:00.909Z,13.20
2022-09-24T21:16:33.198Z,12.48
2022-09-24T21:19:01.132Z,13.57
2022-09-24T21:21:30.668Z,13.68
2022-09-24T21:23:59.966Z,16.20
2022-09-24T21:26:29.644Z,15.18
2022-09-24T21:29:12.096Z,15.68
2022-09-24T21:31:42.161Z,15.75
2022-09-24T21:34:11.022Z,14.70
2022-09-24T21:36:44.577Z,16.70
2022-09-24T21:39:20.702Z,16.90
2022-09-24T21:41:50.300Z,17.25
2022-09-24T21:44:18.530Z,17.58
2022-09-24T21:46:46.758Z,18.02
2022-09-24T21:49:15.867Z,19.85
2022-09-24T21:51:43.480Z,17.88
2022-09-24T21:54:17.519Z,17.40
2022-09-24T21:56:46.187Z,18.35
2022-09-24T21:59:33.105Z,18.33
2022-09-24T22:02:01.142Z,20.27
2022-09-24T22:04:28.837Z,18.92
2022-09-24T22:06:56.203Z,21.00
2022-09-24T22:09:24.791Z,19.90
2022-09-24T22:11:52.827Z,20.02
2022-09-24T22:14:20.299Z,20.83
2022-09-24T22:16:47.759Z,21.15
2022-09-24T22:19:15.196Z,20.13
2022-09-24T22:21:42.631Z,21.63
2022-09-24T22:24:10.272Z,20.52
2022-09-24T22:26:38.390Z,21.73
2022-09-24T22:29:05.902Z,20.42
2022-09-24T22:31:33.768Z,21.67
2022-09-24T22:34:20.197Z,21.45
2022-09-24T22:36:48.047Z,21.90
2022-09-24T22:39:15.645Z,21.77
2022-09-24T22:41:43.342Z,22.55
2022-09-24T22:44:11.562Z,23.73
2022-09-24T22:46:39.655Z,24.05
2022-09-24T22:49:07.899Z,25.77
2022-09-24T22:51:36.122Z,25.88
2022-09-24T22:54:03.587Z,25.40
2022-09-24T22:56:31.121Z,24.98
2022-09-24T22:59:00.590Z,25.77
2022-09-24T23:01:33.781Z,23.48
2022-09-24T23:04:02.374Z,24.65
2022-09-24T23:06:31.483Z,23.35
2022-09-24T23:08:59.110Z,22.52
2022-09-24T23:11:32.795Z,22.67
2022-09-24T23:14:10.666Z,23.27
2022-09-24T23:16:38.812Z,22.17
2022-09-24T23:19:11.102Z,21.75
2022-09-24T23:21:38.488Z,21.83
2022-09-24T23:24:17.422Z,21.60
2022-09-24T23:26:45.795Z,19.65
2022-09-24T23:29:13.748Z,19.75
2022-09-24T23:31:41.229Z,20.77
2022-09-24T23:34:08.709Z,21.40
2022-09-24T23:36:36.513Z,23.15
2022-09-24T23:39:04.726Z,25.40
2022-09-24T23:41:32.351Z,23.75
2022-09-24T23:44:00.594Z,23.75
2022-09-24T23:46:28.108Z,22.77
2022-09-24T23:48:56.121Z,24.90
2022-09-24T23:51:23.690Z,23.77
2022-09-24T23:53:51.605Z,23.23
2022-09-24T23:56:19.804Z,23.98
2022-09-24T23:58:47.425Z,21.95
